sensor_id;sensor_type;location;lat;lon;timestamp;pressure;altitude;pressure_sealevel;temperature;humidity
4199;BME280;2113;50.946;14.610;2023-09-19T00:01:49;96481.75;;;14.29;85.31
4199;BME280;2113;50.946;14.610;2023-09-19T00:04:19;96482.66;;;14.35;85.24
4199;BME280;2113;50.946;14.610;2023-09-19T00:06:55;96477.94;;;14.49;85.45
4199;BME280;2113;50.946;14.610;2023-09-19T00:09:24;96474.56;;;14.42;85.86
4199;BME280;2113;50.946;14.610;2023-09-19T00:11:54;96487.72;;;14.37;85.18
4199;BME280;2113;50.946;14.610;2023-09-19T00:14:24;96478.03;;;14.30;85.10
4199;BME280;2113;50.946;14.610;2023-09-19T00:16:54;96475.63;;;14.29;84.82
4199;BME280;2113;50.946;14.610;2023-09-19T00:19:22;96476.56;;;14.23;84.95
4199;BME280;2113;50.946;14.610;2023-09-19T00:21:51;96485.59;;;14.10;85.06
4199;BME280;2113;50.946;14.610;2023-09-19T00:24:20;96476.38;;;14.13;85.16
4199;BME280;2113;50.946;14.610;2023-09-19T00:26:50;96474.19;;;14.10;85.38
4199;BME280;2113;50.946;14.610;2023-09-19T00:29:18;96470.59;;;14.16;85.39
4199;BME280;2113;50.946;14.610;2023-09-19T00:31:47;96472.47;;;14.44;84.47
4199;BME280;2113;50.946;14.610;2023-09-19T00:34:17;96475.69;;;14.57;84.00
4199;BME280;2113;50.946;14.610;2023-09-19T00:36:45;96475.00;;;14.62;83.71
4199;BME280;2113;50.946;14.610;2023-09-19T00:39:13;96477.13;;;14.77;83.55
4199;BME280;2113;50.946;14.610;2023-09-19T00:41:42;96465.72;;;14.76;82.99
4199;BME280;2113;50.946;14.610;2023-09-19T00:44:11;96467.88;;;14.79;83.40
4199;BME280;2113;50.946;14.610;2023-09-19T00:46:40;96472.06;;;14.75;83.31
4199;BME280;2113;50.946;14.610;2023-09-19T00:49:09;96469.41;;;14.75;83.73
4199;BME280;2113;50.946;14.610;2023-09-19T00:51:39;96470.38;;;14.69;83.76
4199;BME280;2113;50.946;14.610;2023-09-19T00:54:12;96467.72;;;14.69;83.88
4199;BME280;2113;50.946;14.610;2023-09-19T00:56:45;96464.56;;;14.72;83.71
4199;BME280;2113;50.946;14.610;2023-09-19T00:59:16;96465.16;;;14.74;83.73
4199;BME280;2113;50.946;14.610;2023-09-19T01:01:44;96469.41;;;14.75;83.62
4199;BME280;2113;50.946;14.610;2023-09-19T01:04:13;96476.22;;;14.71;83.57
4199;BME280;2113;50.946;14.610;2023-09-19T01:06:42;96466.19;;;14.73;83.72
4199;BME280;2113;50.946;14.610;2023-09-19T01:09:12;96470.06;;;14.82;83.56
4199;BME280;2113;50.946;14.610;2023-09-19T01:11:43;96462.44;;;14.86;83.10
4199;BME280;2113;50.946;14.610;2023-09-19T01:14:20;96470.25;;;14.93;83.02
4199;BME280;2113;50.946;14.610;2023-09-19T01:16:59;96470.25;;;14.93;83.04
4199;BME280;2113;50.946;14.610;2023-09-19T01:19:58;96472.19;;;14.97;82.88
4199;BME280;2113;50.946;14.610;2023-09-19T01:22:42;96457.38;;;14.84;83.00
4199;BME280;2113;50.946;14.610;2023-09-19T01:25:33;96460.53;;;14.98;82.19
4199;BME280;2113;50.946;14.610;2023-09-19T01:28:15;96461.06;;;14.83;83.13
4199;BME280;2113;50.946;14.610;2023-09-19T01:30:52;96449.13;;;14.69;83.45
4199;BME280;2113;50.946;14.610;2023-09-19T01:33:26;96454.81;;;14.61;84.13
4199;BME280;2113;50.946;14.610;2023-09-19T01:36:02;96456.81;;;14.54;84.14
4199;BME280;2113;50.946;14.610;2023-09-19T01:38:32;96457.13;;;14.57;84.03
4199;BME280;2113;50.946;14.610;2023-09-19T01:41:07;96460.22;;;14.66;83.52
4199;BME280;2113;50.946;14.610;2023-09-19T01:43:42;96456.28;;;14.69;83.42
4199;BME280;2113;50.946;14.610;2023-09-19T01:46:16;96460.31;;;14.71;83.36
4199;BME280;2113;50.946;14.610;2023-09-19T01:48:57;96460.31;;;14.71;83.43
4199;BME280;2113;50.946;14.610;2023-09-19T01:51:33;96452.94;;;14.73;83.27
4199;BME280;2113;50.946;14.610;2023-09-19T01:54:04;96455.09;;;14.76;83.27
4199;BME280;2113;50.946;14.610;2023-09-19T01:56:40;96450.97;;;14.69;83.36
4199;BME280;2113;50.946;14.610;2023-09-19T01:59:14;96450.16;;;14.68;83.77
4199;BME280;2113;50.946;14.610;2023-09-19T02:01:45;96456.03;;;14.70;83.57
4199;BME280;2113;50.946;14.610;2023-09-19T02:04:14;96456.16;;;14.75;83.21
4199;BME280;2113;50.946;14.610;2023-09-19T02:06:43;96456.25;;;14.80;83.35
4199;BME280;2113;50.946;14.610;2023-09-19T02:09:14;96457.09;;;14.69;83.31
4199;BME280;2113;50.946;14.610;2023-09-19T02:11:44;96447.97;;;14.65;83.65
4199;BME280;2113;50.946;14.610;2023-09-19T02:14:13;96453.78;;;14.62;83.46
4199;BME280;2113;50.946;14.610;2023-09-19T02:16:42;96451.69;;;14.64;83.37
4199;BME280;2113;50.946;14.610;2023-09-19T02:19:13;96452.16;;;14.61;83.64
4199;BME280;2113;50.946;14.610;2023-09-19T02:21:41;96450.06;;;14.63;83.62
4199;BME280;2113;50.946;14.610;2023-09-19T02:24:10;96446.50;;;14.57;84.01
4199;BME280;2113;50.946;14.610;2023-09-19T02:26:39;96455.88;;;14.60;84.16
4199;BME280;2113;50.946;14.610;2023-09-19T02:29:08;96461.88;;;14.55;83.77
4199;BME280;2113;50.946;14.610;2023-09-19T02:31:39;96466.25;;;14.50;84.33
4199;BME280;2113;50.946;14.610;2023-09-19T02:34:08;96461.06;;;14.55;83.95
4199;BME280;2113;50.946;14.610;2023-09-19T02:36:38;96468.47;;;14.53;83.86
4199;BME280;2113;50.946;14.610;2023-09-19T02:39:06;96472.25;;;14.57;83.40
4199;BME280;2113;50.946;14.610;2023-09-19T02:41:35;96469.69;;;14.62;83.06
4199;BME280;2113;50.946;14.610;2023-09-19T02:44:04;96474.34;;;14.55;83.43
4199;BME280;2113;50.946;14.610;2023-09-19T02:46:34;96482.97;;;14.62;83.14
4199;BME280;2113;50.946;14.610;2023-09-19T02:49:04;96477.16;;;14.65;83.08
4199;BME280;2113;50.946;14.610;2023-09-19T02:51:33;96467.03;;;14.62;83.12
4199;BME280;2113;50.946;14.610;2023-09-19T02:54:03;96479.81;;;14.65;83.37
4199;BME280;2113;50.946;14.610;2023-09-19T02:56:31;96476.16;;;14.66;83.22
4199;BME280;2113;50.946;14.610;2023-09-19T02:59:00;96471.66;;;14.67;83.22
4199;BME280;2113;50.946;14.610;2023-09-19T03:01:29;96475.00;;;14.62;83.54
4199;BME280;2113;50.946;14.610;2023-09-19T03:03:58;96479.16;;;14.58;83.78
4199;BME280;2113;50.946;14.610;2023-09-19T03:06:26;96480.63;;;14.66;83.21
4199;BME280;2113;50.946;14.610;2023-09-19T03:08:58;96486.44;;;14.63;83.42
4199;BME280;2113;50.946;14.610;2023-09-19T03:11:28;96490.81;;;14.57;83.58
4199;BME280;2113;50.946;14.610;2023-09-19T03:13:57;96492.34;;;14.53;83.94
4199;BME280;2113;50.946;14.610;2023-09-19T03:16:26;96489.03;;;14.46;84.33
4199;BME280;2113;50.946;14.610;2023-09-19T03:18:57;96493.84;;;14.49;84.09
4199;BME280;2113;50.946;14.610;2023-09-19T03:21:28;96489.59;;;14.48;84.11
4199;BME280;2113;50.946;14.610;2023-09-19T03:23:57;96486.38;;;14.46;84.10
4199;BME280;2113;50.946;14.610;2023-09-19T03:26:27;96491.19;;;14.49;84.33
4199;BME280;2113;50.946;14.610;2023-09-19T03:28:56;96485.88;;;14.49;84.20
4199;BME280;2113;50.946;14.610;2023-09-19T03:31:25;96487.38;;;14.45;84.08
4199;BME280;2113;50.946;14.610;2023-09-19T03:33:53;96479.28;;;14.51;84.01
4199;BME280;2113;50.946;14.610;2023-09-19T03:36:22;96483.00;;;14.50;84.08
4199;BME280;2113;50.946;14.610;2023-09-19T03:38:50;96483.22;;;14.49;84.40
4199;BME280;2113;50.946;14.610;2023-09-19T03:41:19;96487.50;;;14.50;84.22
4199;BME280;2113;50.946;14.610;2023-09-19T03:43:48;96484.28;;;14.48;84.46
4199;BME280;2113;50.946;14.610;2023-09-19T03:46:17;96489.91;;;14.51;84.46
4199;BME280;2113;50.946;14.610;2023-09-19T03:48:46;96488.19;;;14.45;84.40
4199;BME280;2113;50.946;14.610;2023-09-19T03:51:14;96488.88;;;14.41;84.50
4199;BME280;2113;50.946;14.610;2023-09-19T03:53:43;96490.16;;;14.38;84.85
4199;BME280;2113;50.946;14.610;2023-09-19T03:56:11;96492.59;;;14.40;84.77
4199;BME280;2113;50.946;14.610;2023-09-19T03:58:40;96492.72;;;14.33;85.03
4199;BME280;2113;50.946;14.610;2023-09-19T04:01:10;96483.94;;;14.33;85.17
4199;BME280;2113;50.946;14.610;2023-09-19T04:03:40;96488.31;;;14.39;84.77
4199;BME280;2113;50.946;14.610;2023-09-19T04:06:15;96488.53;;;14.37;84.84
4199;BME280;2113;50.946;14.610;2023-09-19T04:08:44;96494.31;;;14.34;84.83
4199;BME280;2113;50.946;14.610;2023-09-19T04:11:13;96486.72;;;14.38;84.81
4199;BME280;2113;50.946;14.610;2023-09-19T04:13:41;96493.38;;;14.40;84.28
4199;BME280;2113;50.946;14.610;2023-09-19T04:16:11;96491.78;;;14.39;84.46
4199;BME280;2113;50.946;14.610;2023-09-19T04:18:40;96494.88;;;14.36;84.51
4199;BME280;2113;50.946;14.610;2023-09-19T04:21:09;96497.78;;;14.35;84.53
4199;BME280;2113;50.946;14.610;2023-09-19T04:23:37;96499.63;;;14.34;84.39
4199;BME280;2113;50.946;14.610;2023-09-19T04:26:06;96501.47;;;14.34;84.56
4199;BME280;2113;50.946;14.610;2023-09-19T04:28:34;96499.88;;;14.33;84.48
4199;BME280;2113;50.946;14.610;2023-09-19T04:31:05;96503.09;;;14.35;84.43
4199;BME280;2113;50.946;14.610;2023-09-19T04:33:36;96511.03;;;14.35;84.17
4199;BME280;2113;50.946;14.610;2023-09-19T04:36:05;96516.56;;;14.45;83.61
4199;BME280;2113;50.946;14.610;2023-09-19T04:38:54;96521.88;;;14.45;83.63
4199;BME280;2113;50.946;14.610;2023-09-19T04:41:22;96519.03;;;14.46;83.33
4199;BME280;2113;50.946;14.610;2023-09-19T04:43:51;96523.03;;;14.49;83.50
4199;BME280;2113;50.946;14.610;2023-09-19T04:46:19;96527.19;;;14.45;83.66
4199;BME280;2113;50.946;14.610;2023-09-19T04:48:50;96527.88;;;14.40;83.98
4199;BME280;2113;50.946;14.610;2023-09-19T04:51:18;96532.63;;;14.38;84.40
4199;BME280;2113;50.946;14.610;2023-09-19T04:53:47;96533.06;;;14.35;83.98
4199;BME280;2113;50.946;14.610;2023-09-19T04:56:16;96543.69;;;14.35;84.25
4199;BME280;2113;50.946;14.610;2023-09-19T04:58:44;96544.03;;;14.39;83.96
4199;BME280;2113;50.946;14.610;2023-09-19T05:01:12;96545.66;;;14.40;84.00
4199;BME280;2113;50.946;14.610;2023-09-19T05:03:42;96543.00;;;14.40;83.69
4199;BME280;2113;50.946;14.610;2023-09-19T05:06:13;96545.97;;;14.43;83.53
4199;BME280;2113;50.946;14.610;2023-09-19T05:08:41;96551.19;;;14.50;83.32
4199;BME280;2113;50.946;14.610;2023-09-19T05:11:09;96556.03;;;14.53;83.07
4199;BME280;2113;50.946;14.610;2023-09-19T05:13:38;96558.22;;;14.56;82.55
4199;BME280;2113;50.946;14.610;2023-09-19T05:16:07;96566.28;;;14.61;82.48
4199;BME280;2113;50.946;14.610;2023-09-19T05:18:37;96554.38;;;14.64;82.15
4199;BME280;2113;50.946;14.610;2023-09-19T05:21:05;96568.47;;;14.64;82.27
4199;BME280;2113;50.946;14.610;2023-09-19T05:23:35;96563.97;;;14.65;82.22
4199;BME280;2113;50.946;14.610;2023-09-19T05:26:04;96565.44;;;14.72;81.81
4199;BME280;2113;50.946;14.610;2023-09-19T05:28:33;96564.31;;;14.68;81.96
4199;BME280;2113;50.946;14.610;2023-09-19T05:31:01;96566.50;;;14.71;81.80
4199;BME280;2113;50.946;14.610;2023-09-19T05:33:30;96557.41;;;14.67;81.80
4199;BME280;2113;50.946;14.610;2023-09-19T05:36:00;96561.19;;;14.71;81.95
4199;BME280;2113;50.946;14.610;2023-09-19T05:38:28;96568.69;;;14.74;81.33
4199;BME280;2113;50.946;14.610;2023-09-19T05:40:58;96567.75;;;14.80;81.03
4199;BME280;2113;50.946;14.610;2023-09-19T05:43:28;96570.50;;;14.86;80.63
4199;BME280;2113;50.946;14.610;2023-09-19T05:45:59;96573.25;;;14.91;80.76
4199;BME280;2113;50.946;14.610;2023-09-19T05:48:28;96581.09;;;14.97;80.51
4199;BME280;2113;50.946;14.610;2023-09-19T05:50:56;96580.41;;;15.02;80.58
4199;BME280;2113;50.946;14.610;2023-09-19T05:53:24;96579.66;;;15.06;80.81
4199;BME280;2113;50.946;14.610;2023-09-19T05:55:53;96584.03;;;15.13;80.69
4199;BME280;2113;50.946;14.610;2023-09-19T05:58:24;96586.56;;;15.19;80.28
4199;BME280;2113;50.946;14.610;2023-09-19T06:00:52;96593.22;;;15.22;80.45
4199;BME280;2113;50.946;14.610;2023-09-19T06:03:22;96595.28;;;15.31;79.97
4199;BME280;2113;50.946;14.610;2023-09-19T06:05:50;96604.72;;;15.39;79.96
4199;BME280;2113;50.946;14.610;2023-09-19T06:08:19;96606.75;;;15.49;79.63
4199;BME280;2113;50.946;14.610;2023-09-19T06:10:48;96605.25;;;15.53;79.53
4199;BME280;2113;50.946;14.610;2023-09-19T06:13:19;96613.69;;;15.50;79.28
4199;BME280;2113;50.946;14.610;2023-09-19T06:15:49;96619.72;;;15.45;79.48
4199;BME280;2113;50.946;14.610;2023-09-19T06:18:17;96622.13;;;15.47;79.54
4199;BME280;2113;50.946;14.610;2023-09-19T06:20:47;96631.09;;;15.57;79.50
4199;BME280;2113;50.946;14.610;2023-09-19T06:23:18;96632.38;;;15.67;78.86
4199;BME280;2113;50.946;14.610;2023-09-19T06:25:48;96638.91;;;15.76;79.12
4199;BME280;2113;50.946;14.610;2023-09-19T06:28:16;96641.72;;;15.69;78.08
4199;BME280;2113;50.946;14.610;2023-09-19T06:30:52;96638.75;;;15.65;78.96
4199;BME280;2113;50.946;14.610;2023-09-19T06:33:21;96639.72;;;15.76;78.61
4199;BME280;2113;50.946;14.610;2023-09-19T06:35:49;96631.81;;;15.81;78.01
4199;BME280;2113;50.946;14.610;2023-09-19T06:38:20;96635.78;;;15.96;77.72
4199;BME280;2113;50.946;14.610;2023-09-19T06:40:48;96641.00;;;15.90;77.22
4199;BME280;2113;50.946;14.610;2023-09-19T06:43:17;96649.44;;;16.16;77.20
4199;BME280;2113;50.946;14.610;2023-09-19T06:45:46;96654.72;;;15.99;76.56
4199;BME280;2113;50.946;14.610;2023-09-19T06:48:16;96667.16;;;16.10;76.12
4199;BME280;2113;50.946;14.610;2023-09-19T06:50:45;96665.63;;;16.14;76.16
4199;BME280;2113;50.946;14.610;2023-09-19T06:53:15;96670.06;;;16.09;76.46
4199;BME280;2113;50.946;14.610;2023-09-19T06:55:43;96669.16;;;16.03;76.73
4199;BME280;2113;50.946;14.610;2023-09-19T06:58:12;96670.22;;;16.19;77.02
4199;BME280;2113;50.946;14.610;2023-09-19T07:00:40;96667.97;;;16.11;75.31
4199;BME280;2113;50.946;14.610;2023-09-19T07:03:08;96670.63;;;16.11;75.36
4199;BME280;2113;50.946;14.610;2023-09-19T07:05:40;96674.41;;;16.32;75.58
4199;BME280;2113;50.946;14.610;2023-09-19T07:08:10;96677.78;;;16.61;75.04
4199;BME280;2113;50.946;14.610;2023-09-19T07:10:40;96685.22;;;16.59;74.49
4199;BME280;2113;50.946;14.610;2023-09-19T07:13:09;96691.34;;;16.59;74.07
4199;BME280;2113;50.946;14.610;2023-09-19T07:15:38;96694.09;;;16.81;72.62
4199;BME280;2113;50.946;14.610;2023-09-19T07:18:14;96697.41;;;17.10;72.67
4199;BME280;2113;50.946;14.610;2023-09-19T07:20:45;96695.50;;;17.06;71.26
4199;BME280;2113;50.946;14.610;2023-09-19T07:23:17;96701.31;;;17.02;71.38
4199;BME280;2113;50.946;14.610;2023-09-19T07:25:47;96695.69;;;16.99;71.61
4199;BME280;2113;50.946;14.610;2023-09-19T07:28:16;96704.13;;;16.74;72.31
4199;BME280;2113;50.946;14.610;2023-09-19T07:30:45;96701.88;;;17.26;70.94
4199;BME280;2113;50.946;14.610;2023-09-19T07:33:13;96704.69;;;17.15;70.32
4199;BME280;2113;50.946;14.610;2023-09-19T07:35:46;96701.06;;;17.26;70.42
4199;BME280;2113;50.946;14.610;2023-09-19T07:38:15;96714.81;;;17.35;69.53
4199;BME280;2113;50.946;14.610;2023-09-19T07:40:44;96714.41;;;17.70;68.88
4199;BME280;2113;50.946;14.610;2023-09-19T07:43:13;96718.63;;;17.66;68.03
4199;BME280;2113;50.946;14.610;2023-09-19T07:45:41;96704.41;;;18.68;65.43
4199;BME280;2113;50.946;14.610;2023-09-19T07:48:10;96711.22;;;20.16;59.90
4199;BME280;2113;50.946;14.610;2023-09-19T07:50:41;96701.81;;;20.85;59.03
4199;BME280;2113;50.946;14.610;2023-09-19T07:53:13;96715.22;;;20.29;59.54
4199;BME280;2113;50.946;14.610;2023-09-19T07:55:42;96717.91;;;20.09;60.93
4199;BME280;2113;50.946;14.610;2023-09-19T07:58:15;96717.88;;;21.05;57.05
4199;BME280;2113;50.946;14.610;2023-09-19T08:00:43;96713.38;;;20.75;57.39
4199;BME280;2113;50.946;14.610;2023-09-19T08:03:13;96713.41;;;20.45;57.81
4199;BME280;2113;50.946;14.610;2023-09-19T08:05:44;96717.66;;;20.87;57.28
4199;BME280;2113;50.946;14.610;2023-09-19T08:08:14;96722.47;;;20.64;56.92
4199;BME280;2113;50.946;14.610;2023-09-19T08:10:43;96724.38;;;21.79;54.62
4199;BME280;2113;50.946;14.610;2023-09-19T08:13:13;96731.59;;;18.97;61.04
4199;BME280;2113;50.946;14.610;2023-09-19T08:15:44;96740.03;;;18.20;64.29
4199;BME280;2113;50.946;14.610;2023-09-19T08:18:13;96741.84;;;19.15;61.88
4199;BME280;2113;50.946;14.610;2023-09-19T08:20:43;96738.00;;;18.96;61.13
4199;BME280;2113;50.946;14.610;2023-09-19T08:23:14;96756.06;;;18.52;64.00
4199;BME280;2113;50.946;14.610;2023-09-19T08:25:44;96745.91;;;17.95;64.32
4199;BME280;2113;50.946;14.610;2023-09-19T08:28:12;96751.59;;;17.76;64.04
4199;BME280;2113;50.946;14.610;2023-09-19T08:30:46;96749.75;;;17.38;64.87
4199;BME280;2113;50.946;14.610;2023-09-19T08:33:14;96748.06;;;17.32;65.11
4199;BME280;2113;50.946;14.610;2023-09-19T08:35:43;96749.03;;;17.43;65.08
4199;BME280;2113;50.946;14.610;2023-09-19T08:38:13;96757.13;;;17.31;63.79
4199;BME280;2113;50.946;14.610;2023-09-19T08:40:42;96745.38;;;17.27;63.18
4199;BME280;2113;50.946;14.610;2023-09-19T08:43:11;96752.03;;;17.08;63.63
4199;BME280;2113;50.946;14.610;2023-09-19T08:45:39;96752.72;;;17.20;63.33
4199;BME280;2113;50.946;14.610;2023-09-19T08:48:19;96753.19;;;17.55;63.34
4199;BME280;2113;50.946;14.610;2023-09-19T08:50:51;96748.78;;;18.69;59.95
4199;BME280;2113;50.946;14.610;2023-09-19T08:53:26;96753.00;;;20.33;54.50
4199;BME280;2113;50.946;14.610;2023-09-19T08:56:01;96743.19;;;21.69;50.99
4199;BME280;2113;50.946;14.610;2023-09-19T08:58:35;96749.28;;;20.64;51.35
4199;BME280;2113;50.946;14.610;2023-09-19T09:01:09;96737.75;;;20.64;49.75
4199;BME280;2113;50.946;14.610;2023-09-19T09:03:40;96746.84;;;20.42;50.07
4199;BME280;2113;50.946;14.610;2023-09-19T09:06:15;96759.44;;;21.13;49.78
4199;BME280;2113;50.946;14.610;2023-09-19T09:08:46;96751.81;;;21.61;48.92
4199;BME280;2113;50.946;14.610;2023-09-19T09:11:16;96756.72;;;21.44;48.03
4199;BME280;2113;50.946;14.610;2023-09-19T09:13:45;96755.44;;;21.90;48.52
4199;BME280;2113;50.946;14.610;2023-09-19T09:16:14;96761.28;;;20.36;50.38
4199;BME280;2113;50.946;14.610;2023-09-19T09:18:44;96773.13;;;19.57;53.16
4199;BME280;2113;50.946;14.610;2023-09-19T09:21:20;96775.53;;;19.11;55.89
4199;BME280;2113;50.946;14.610;2023-09-19T09:23:49;96774.03;;;19.83;53.73
4199;BME280;2113;50.946;14.610;2023-09-19T09:26:40;96776.81;;;19.51;53.69
4199;BME280;2113;50.946;14.610;2023-09-19T09:29:10;96768.88;;;21.00;48.98
4199;BME280;2113;50.946;14.610;2023-09-19T09:31:38;96764.25;;;21.36;49.95
4199;BME280;2113;50.946;14.610;2023-09-19T09:34:10;96763.97;;;22.03;47.36
4199;BME280;2113;50.946;14.610;2023-09-19T09:36:41;96771.34;;;22.36;47.21
4199;BME280;2113;50.946;14.610;2023-09-19T09:39:09;96760.22;;;22.82;45.70
4199;BME280;2113;50.946;14.610;2023-09-19T09:41:47;96760.34;;;22.72;45.01
4199;BME280;2113;50.946;14.610;2023-09-19T09:44:17;96757.59;;;24.45;43.34
4199;BME280;2113;50.946;14.610;2023-09-19T09:46:47;96765.84;;;24.53;42.89
4199;BME280;2113;50.946;14.610;2023-09-19T09:49:47;96759.16;;;24.08;41.95
4199;BME280;2113;50.946;14.610;2023-09-19T09:52:21;96753.69;;;23.94;44.00
4199;BME280;2113;50.946;14.610;2023-09-19T09:55:02;96764.63;;;23.84;44.00
4199;BME280;2113;50.946;14.610;2023-09-19T09:57:34;96761.53;;;24.85;41.93
4199;BME280;2113;50.946;14.610;2023-09-19T10:00:04;96752.28;;;25.79;39.55
4199;BME280;2113;50.946;14.610;2023-09-19T10:02:47;96759.66;;;24.53;42.46
4199;BME280;2113;50.946;14.610;2023-09-19T10:05:17;96764.25;;;24.33;40.91
4199;BME280;2113;50.946;14.610;2023-09-19T10:07:55;96764.09;;;24.25;44.17
4199;BME280;2113;50.946;14.610;2023-09-19T10:10:32;96777.06;;;22.64;46.02
4199;BME280;2113;50.946;14.610;2023-09-19T10:13:13;96779.75;;;21.65;49.20
4199;BME280;2113;50.946;14.610;2023-09-19T10:15:48;96788.34;;;20.35;50.30
4199;BME280;2113;50.946;14.610;2023-09-19T10:18:20;96794.72;;;20.03;52.02
4199;BME280;2113;50.946;14.610;2023-09-19T10:20:49;96795.69;;;19.77;53.35
4199;BME280;2113;50.946;14.610;2023-09-19T10:23:18;96797.31;;;19.83;53.63
4199;BME280;2113;50.946;14.610;2023-09-19T10:25:50;96795.78;;;20.07;53.13
4199;BME280;2113;50.946;14.610;2023-09-19T10:28:21;96805.34;;;19.83;53.10
4199;BME280;2113;50.946;14.610;2023-09-19T10:30:51;96801.91;;;19.40;54.91
4199;BME280;2113;50.946;14.610;2023-09-19T10:33:22;96801.91;;;18.98;56.25
4199;BME280;2113;50.946;14.610;2023-09-19T10:35:53;96804.84;;;18.96;56.32
4199;BME280;2113;50.946;14.610;2023-09-19T10:38:23;96803.06;;;18.75;56.16
4199;BME280;2113;50.946;14.610;2023-09-19T10:40:54;96794.84;;;19.24;56.08
4199;BME280;2113;50.946;14.610;2023-09-19T10:43:31;96798.97;;;19.94;54.05
4199;BME280;2113;50.946;14.610;2023-09-19T10:46:06;96795.38;;;21.22;50.32
4199;BME280;2113;50.946;14.610;2023-09-19T10:48:38;96797.81;;;22.04;49.39
4199;BME280;2113;50.946;14.610;2023-09-19T10:51:13;96791.28;;;22.25;47.25
4199;BME280;2113;50.946;14.610;2023-09-19T10:53:47;96783.78;;;22.22;46.54
4199;BME280;2113;50.946;14.610;2023-09-19T10:56:20;96791.81;;;23.06;45.21
4199;BME280;2113;50.946;14.610;2023-09-19T10:59:05;96784.06;;;22.60;46.08
4199;BME280;2113;50.946;14.610;2023-09-19T11:01:42;96782.53;;;22.83;44.42
4199;BME280;2113;50.946;14.610;2023-09-19T11:04:26;96782.31;;;23.13;43.90
4199;BME280;2113;50.946;14.610;2023-09-19T11:07:05;96779.81;;;23.46;45.44
4199;BME280;2113;50.946;14.610;2023-09-19T11:09:47;96778.13;;;22.24;46.08
4199;BME280;2113;50.946;14.610;2023-09-19T11:12:48;96782.00;;;22.46;45.50
4199;BME280;2113;50.946;14.610;2023-09-19T11:18:54;96781.25;;;22.41;44.31
4199;BME280;2113;50.946;14.610;2023-09-19T11:21:52;96782.88;;;21.77;46.55
4199;BME280;2113;50.946;14.610;2023-09-19T11:24:29;96782.31;;;22.40;44.63
4199;BME280;2113;50.946;14.610;2023-09-19T11:27:16;96787.06;;;22.58;44.04
4199;BME280;2113;50.946;14.610;2023-09-19T11:29:46;96790.88;;;22.47;44.02
4199;BME280;2113;50.946;14.610;2023-09-19T11:32:16;96788.97;;;22.53;45.52
4199;BME280;2113;50.946;14.610;2023-09-19T11:34:48;96791.41;;;22.00;44.65
4199;BME280;2113;50.946;14.610;2023-09-19T11:40:46;96779.03;;;22.92;44.80
4199;BME280;2113;50.946;14.610;2023-09-19T11:43:29;96780.53;;;22.25;44.71
4199;BME280;2113;50.946;14.610;2023-09-19T11:46:07;96779.59;;;22.50;43.47
4199;BME280;2113;50.946;14.610;2023-09-19T11:48:38;96782.13;;;22.31;44.43
4199;BME280;2113;50.946;14.610;2023-09-19T11:51:15;96779.25;;;22.12;44.13
4199;BME280;2113;50.946;14.610;2023-09-19T11:53:50;96777.72;;;22.45;44.27
4199;BME280;2113;50.946;14.610;2023-09-19T11:56:19;96774.56;;;22.38;43.74
4199;BME280;2113;50.946;14.610;2023-09-19T11:58:49;96770.09;;;23.26;43.13
4199;BME280;2113;50.946;14.610;2023-09-19T12:01:23;96765.19;;;23.57;42.01
4199;BME280;2113;50.946;14.610;2023-09-19T12:03:56;96768.28;;;22.87;42.84
4199;BME280;2113;50.946;14.610;2023-09-19T12:06:27;96769.38;;;22.81;44.87
4199;BME280;2113;50.946;14.610;2023-09-19T12:08:57;96767.47;;;22.92;43.42
4199;BME280;2113;50.946;14.610;2023-09-19T12:11:29;96776.69;;;22.41;44.24
4199;BME280;2113;50.946;14.610;2023-09-19T12:14:01;96770.34;;;23.00;44.22
4199;BME280;2113;50.946;14.610;2023-09-19T12:16:31;96773.16;;;21.97;44.20
4199;BME280;2113;50.946;14.610;2023-09-19T12:19:20;96783.97;;;22.36;44.28
4199;BME280;2113;50.946;14.610;2023-09-19T12:21:58;96774.38;;;22.64;41.97
4199;BME280;2113;50.946;14.610;2023-09-19T12:24:32;96777.34;;;22.18;42.13
4199;BME280;2113;50.946;14.610;2023-09-19T12:27:05;96773.09;;;22.07;43.04
4199;BME280;2113;50.946;14.610;2023-09-19T12:29:42;96770.97;;;22.09;43.25
4199;BME280;2113;50.946;14.610;2023-09-19T12:32:11;96778.47;;;22.07;44.07
4199;BME280;2113;50.946;14.610;2023-09-19T12:34:42;96769.34;;;22.03;43.27
4199;BME280;2113;50.946;14.610;2023-09-19T12:37:13;96787.75;;;21.70;43.16
4199;BME280;2113;50.946;14.610;2023-09-19T12:39:50;96781.34;;;21.66;43.54
4199;BME280;2113;50.946;14.610;2023-09-19T12:42:21;96775.41;;;21.69;42.69
4199;BME280;2113;50.946;14.610;2023-09-19T12:44:51;96770.66;;;21.46;42.81
4199;BME280;2113;50.946;14.610;2023-09-19T12:47:23;96776.56;;;21.53;42.84
4199;BME280;2113;50.946;14.610;2023-09-19T12:50:09;96771.03;;;21.93;43.19
4199;BME280;2113;50.946;14.610;2023-09-19T12:52:54;96764.88;;;22.77;43.35
4199;BME280;2113;50.946;14.610;2023-09-19T12:55:27;96763.63;;;22.64;41.28
4199;BME280;2113;50.946;14.610;2023-09-19T12:58:02;96764.16;;;21.62;41.88
4199;BME280;2113;50.946;14.610;2023-09-19T13:00:37;96767.97;;;21.51;44.03
4199;BME280;2113;50.946;14.610;2023-09-19T13:03:12;96776.19;;;21.80;43.61
4199;BME280;2113;50.946;14.610;2023-09-19T13:05:54;96769.47;;;21.77;43.86
4199;BME280;2113;50.946;14.610;2023-09-19T13:08:28;96774.66;;;21.58;42.23
4199;BME280;2113;50.946;14.610;2023-09-19T13:11:05;96765.06;;;21.32;43.08
4199;BME280;2113;50.946;14.610;2023-09-19T13:13:38;96762.16;;;21.03;42.65
4199;BME280;2113;50.946;14.610;2023-09-19T13:16:07;96767.25;;;20.94;43.10
4199;BME280;2113;50.946;14.610;2023-09-19T13:18:46;96770.16;;;21.18;43.10
4199;BME280;2113;50.946;14.610;2023-09-19T13:21:27;96773.38;;;21.20;42.59
4199;BME280;2113;50.946;14.610;2023-09-19T13:24:19;96773.41;;;21.15;42.17
4199;BME280;2113;50.946;14.610;2023-09-19T13:26:47;96760.56;;;20.81;43.32
4199;BME280;2113;50.946;14.610;2023-09-19T13:29:15;96762.91;;;21.13;42.28
4199;BME280;2113;50.946;14.610;2023-09-19T13:31:46;96762.91;;;21.24;42.42
4199;BME280;2113;50.946;14.610;2023-09-19T13:34:15;96759.44;;;21.28;41.14
4199;BME280;2113;50.946;14.610;2023-09-19T13:36:44;96761.03;;;21.39;42.16
4199;BME280;2113;50.946;14.610;2023-09-19T13:39:15;96761.00;;;21.50;41.37
4199;BME280;2113;50.946;14.610;2023-09-19T13:41:47;96758.34;;;21.24;41.17